x

8452944 - Conimicut Light, Ri (cptr1) Weather Station

8:54 - Thu 29th Sep 2016 All times are EDT. -4 hours from GMT.

  • Wind
    18mph, 30mph gusts
  • Sea Temp 67°f
  • Luft Temp 58°f
  • Sea Pressure 1029.6mb
  • 8452944 - Conimicut Light, Ri
  • 8452944 - Conimicut Light, Ri

More Historic Weather Station data

Upgrade to MSW Pro to gain access to the past 30 days of data for over 8000 Wavebouys and Weather Stations around the globe.

Join Pro

Comparision Forecast

View Surf forecast
   
Do 09/29 8:54 18 30 mph 1029.6mb 67f 58f
8:48 22 29 mph 1029.5mb 67f 57f
8:42 21 31 mph 1029.5mb 67f 57f
8:36 18 24 mph 1029.2mb 67f 57f
8:30 20 28 mph 1029.1mb 67f 57f
8:24 17 25 mph 1029.2mb 67f 57f
8:18 20 25 mph 1029.1mb 67f 57f
8:12 18 23 mph 1029.1mb 67f 57f
8:06 21 26 mph 1029mb 67f 57f
8:00 17 22 mph 1029mb 67f 57f
7:54 20 23 mph 1028.9mb 67f 57f
7:48 15 22 mph 1028.9mb 67f 58f
7:42 17 21 mph 1028.9mb 67f 57f
7:36 20 26 mph 1028.8mb 67f 57f
7:30 15 24 mph 1028.9mb 67f 58f
7:24 21 25 mph 1028.6mb 67f 58f
7:18 15 18 mph 1028.6mb 67f 58f
7:12 17 22 mph 1028.4mb 67f 58f
7:06 16 20 mph 1028.4mb 67f 58f
7:00 11 20 mph 1028.6mb 67f 58f
6:54 16 21 mph 1028.6mb 67f 58f
6:48 15 21 mph 1028.4mb 67f 58f
6:42 16 22 mph 1028.2mb 67f 58f
6:36 20 26 mph 1028mb 67f 58f
6:30 17 25 mph 1027.9mb 67f 58f
6:24 18 25 mph 1028mb 67f 58f
6:18 16 20 mph 1028mb 67f 58f
6:12 14 22 mph 1028mb 67f 58f
6:06 15 20 mph 1027.8mb 67f 58f
6:00 15 21 mph 1027.7mb 67f 58f
5:54 16 20 mph 1027.8mb 67f 58f
5:48 15 21 mph 1027.7mb 67f 58f
5:42 15 21 mph 1027.8mb 67f 58f
5:36 15 20 mph 1027.9mb 67f 58f
5:30 15 25 mph 1027.7mb 67f 59f
5:24 15 21 mph 1027.7mb 67f 59f
5:18 15 21 mph 1027.6mb 67f 59f
5:12 20 26 mph 1027.3mb 67f 59f
5:06 14 20 mph 1027.2mb 67f 59f
5:00 15 22 mph 1027.1mb 67f 59f
4:54 16 22 mph 1027mb 67f 59f
4:48 15 20 mph 1027mb 67f 59f
4:42 15 21 mph 1027mb 67f 59f
4:36 14 21 mph 1027mb 67f 59f
4:30 17 22 mph 1026.9mb 67f 59f
4:24 15 20 mph 1026.8mb 67f 59f
4:18 15 22 mph 1026.7mb 67f 59f
4:12 16 23 mph 1026.7mb 67f 59f
4:06 16 22 mph 1026.7mb 67f 59f
4:00 13 18 mph 1026.6mb 67f 59f
3:54 15 23 mph 1026.5mb 67f 59f
3:48 15 22 mph 1026.5mb 67f 59f
3:42 14 26 mph 1026.5mb 67f 59f
3:36 15 23 mph 1026.4mb 67f 59f
3:30 15 23 mph 1026.4mb 67f 59f
3:24 15 22 mph 1026.5mb 67f 59f
3:18 14 20 mph 1026.4mb 67f 59f
3:12 15 21 mph 1026.5mb 67f 59f
3:06 13 16 mph 1026.4mb 67f 59f
3:00 15 20 mph 1026.3mb 67f 59f
2:54 16 20 mph 1026.1mb 67f 59f
2:48 16 24 mph 1026mb - -
2:42 15 21 mph 1026mb - -
2:36 16 21 mph 1025.9mb - -
2:30 15 22 mph 1025.9mb 67f 59f
2:24 17 22 mph 1025.8mb 68f 59f
2:18 15 21 mph 1025.9mb 68f 59f
2:12 16 23 mph 1025.8mb 68f 59f
2:06 14 20 mph 1025.8mb 68f 59f
2:00 16 20 mph 1025.8mb 68f 59f
1:54 16 18 mph 1025.7mb 68f 59f
1:48 16 23 mph 1025.8mb 68f -
1:42 14 20 mph 1025.9mb 68f -
1:36 15 18 mph 1026mb 68f -
1:30 16 21 mph 1026.1mb 68f 59f
1:24 16 20 mph 1026mb 68f 59f
1:18 16 21 mph 1026.1mb 68f 59f
1:12 15 18 mph 1026mb 68f 59f
1:06 14 20 mph 1026mb 68f 59f
1:00 17 25 mph 1026mb 68f 59f
12:54 16 23 mph 1025.9mb 68f 59f
12:48 17 25 mph 1026mb 68f 59f
12:42 14 20 mph 1026.1mb 67f 59f
12:36 18 22 mph 1026mb 67f 59f
12:30 16 24 mph 1025.9mb 68f 59f
12:24 16 22 mph 1025.8mb 68f 59f
12:18 15 21 mph 1025.7mb 68f 59f
12:12 16 21 mph 1025.7mb 68f 59f
12:06 15 21 mph 1025.7mb 68f 59f
12:00 16 23 mph 1025.8mb 68f 59f
Mi 09/28 11:54 16 20 mph 1025.8mb 68f 59f
11:48 17 21 mph 1025.7mb 68f 59f
11:42 14 21 mph 1025.8mb 68f 59f
11:36 15 20 mph 1025.9mb 68f 59f
11:30 14 18 mph 1026mb 68f 59f
11:24 15 18 mph 1026mb 68f 59f
11:18 11 21 mph 1026mb 68f 59f
11:12 17 20 mph 1025.9mb 68f 59f
11:06 14 16 mph 1025.9mb 68f 59f
11:00 14 18 mph 1026mb 68f 59f
10:54 13 15 mph 1025.9mb 68f 59f
10:48 15 22 mph 1025.8mb 68f 59f
10:42 16 24 mph 1025.8mb 68f 59f
10:36 14 21 mph 1025.8mb 68f 59f
10:30 15 20 mph 1025.6mb 68f 59f
10:24 14 20 mph 1025.6mb 68f 59f
10:18 14 16 mph 1025.4mb 68f 59f
10:12 13 21 mph 1025.3mb 68f 59f
10:06 14 17 mph 1025.3mb 68f 59f
10:00 13 16 mph 1025.4mb 68f 59f
9:54 13 16 mph 1025.3mb 68f 58f
9:48 13 17 mph 1025.3mb 68f 58f
9:42 14 18 mph 1025.1mb 67f 58f
9:36 11 17 mph 1025mb 67f 58f
9:30 14 17 mph 1024.9mb 67f 58f
9:24 10 16 mph 1025mb 68f 58f
9:18 13 18 mph 1024.8mb 68f 58f
9:12 14 17 mph 1024.7mb 68f 58f
9:06 13 16 mph 1024.7mb 68f 58f
9:00 11 20 mph 1024.8mb 68f 58f
8:54 14 17 mph 1024.7mb 68f 58f
8:48 13 15 mph 1024.7mb 68f 57f
8:42 13 18 mph 1024.6mb 68f 57f
8:36 14 17 mph 1024.6mb 68f 57f
8:30 13 17 mph - 68f 57f
8:24 13 17 mph - 68f 57f
8:18 13 18 mph 1024.5mb 68f 57f
8:12 14 18 mph 1024.4mb 68f 57f
8:06 14 18 mph 1024.3mb 68f 57f
8:00 13 17 mph 1024.2mb 68f 57f
7:54 15 21 mph 1024.1mb 68f 57f
7:48 14 22 mph 1024mb 68f -
7:42 15 20 mph 1024mb 68f -
7:36 14 16 mph 1023.9mb 68f -
7:30 14 18 mph 1023.8mb 68f 57f
7:24 15 20 mph 1023.8mb 68f 57f
7:18 15 17 mph 1023.7mb 68f 57f
7:12 15 17 mph 1023.8mb 68f 57f
7:06 15 21 mph 1023.7mb 68f 57f
7:00 15 20 mph 1023.4mb 68f 56f
6:54 15 18 mph 1023.5mb 68f 57f
6:48 15 21 mph 1023.5mb 68f -
6:42 14 18 mph 1023.6mb 68f -
6:36 17 20 mph 1023.6mb 68f -
6:30 15 20 mph 1023.4mb 68f 56f
6:24 17 23 mph 1023.4mb 68f 57f
6:18 15 20 mph 1023.5mb 68f 56f
6:12 15 23 mph 1023.4mb 68f 57f
6:06 16 21 mph 1023.4mb 68f 57f
6:00 14 17 mph 1023.4mb 68f 57f
5:54 18 22 mph 1023.5mb 68f 57f
5:48 15 20 mph 1023.6mb 68f 57f
5:42 14 18 mph 1023.6mb 68f 57f
5:36 15 20 mph 1023.6mb 68f 57f
5:30 17 22 mph 1023.5mb 68f 57f
5:24 14 18 mph 1023.6mb 68f 57f
5:18 17 21 mph 1023.6mb 68f 57f
5:12 15 20 mph 1023.5mb 68f 57f
5:06 16 20 mph 1023.3mb 68f 57f
5:00 15 20 mph 1023.2mb 68f 57f
4:54 15 20 mph 1023.1mb 68f 57f
4:48 15 22 mph 1023mb 68f 57f
4:42 16 24 mph 1022.9mb 68f 56f
4:36 17 22 mph 1023mb 68f 57f
4:30 17 22 mph 1023.1mb 68f 57f
4:24 18 26 mph 1023.1mb 68f 57f
4:18 20 26 mph 1023.1mb 68f 57f
4:12 20 24 mph 1023mb 68f 57f
4:06 18 24 mph 1023mb 68f 57f
4:00 14 18 mph 1023.1mb 68f 57f
3:54 15 23 mph 1023mb 68f 58f
3:48 22 28 mph 1022.8mb 68f 57f
3:42 20 24 mph 1022.8mb 68f 57f
3:36 17 22 mph 1022.9mb 68f 58f
3:30 16 26 mph 1022.9mb 68f 58f
3:24 16 23 mph 1022.8mb 68f 58f
3:18 15 23 mph 1022.9mb 68f 58f
3:12 18 25 mph 1022.7mb 68f 58f
3:06 21 25 mph 1022.5mb 68f 58f
3:00 17 26 mph 1022.6mb 68f 59f
2:54 15 21 mph 1022.5mb 68f 59f
2:48 20 23 mph 1022.5mb 68f 59f
2:42 18 23 mph 1022.4mb 68f 59f
2:36 16 22 mph 1022.4mb 68f 59f
2:30 18 24 mph 1022.3mb 68f 59f
2:24 21 26 mph 1022.2mb 68f 59f
2:18 22 28 mph 1022.1mb 68f 59f
2:12 21 25 mph 1022mb 68f 59f
2:06 18 24 mph 1022mb 68f 60f
2:00 20 26 mph 1021.9mb 68f 59f
1:54 18 30 mph 1022mb 68f 60f
1:48 21 29 mph 1022mb 68f 60f
1:42 22 29 mph 1021.8mb 68f 60f
1:36 16 25 mph 1022mb 68f 60f
1:30 15 25 mph 1022.1mb 68f 61f
1:24 15 22 mph 1022.1mb 68f 61f
1:18 16 23 mph 1022mb 68f 61f
1:12 18 26 mph 1022mb 68f 61f
1:06 15 25 mph 1022.1mb 68f 61f
1:00 21 29 mph 1022mb 68f 61f
12:54 16 22 mph 1022mb 68f 61f
12:48 18 24 mph 1022mb 68f 61f
12:42 17 23 mph 1021.9mb 68f 61f
12:36 20 26 mph 1021.9mb 68f 61f
12:30 18 24 mph 1022mb 68f 61f
12:24 23 28 mph 1021.9mb 68f 61f
12:18 18 23 mph 1021.8mb 68f 62f
12:12 20 28 mph 1021.8mb 68f 62f
12:06 14 22 mph 1021.8mb 68f 62f
12:00 18 22 mph 1021.8mb 68f 62f
11:54 22 26 mph 1021.7mb 68f 61f
11:48 21 26 mph 1021.6mb 68f 62f
11:42 11 22 mph 1021.8mb 68f 62f
11:36 17 20 mph 1021.7mb 68f 61f
11:30 18 25 mph 1021.6mb 68f 61f
11:24 18 24 mph 1021.7mb 68f 61f
11:18 20 24 mph 1021.6mb 68f 61f
11:12 16 24 mph 1021.6mb 68f 61f
11:06 17 28 mph 1021.7mb 68f 61f
11:00 18 24 mph 1021.7mb 68f 61f
10:54 14 22 mph 1021.7mb 68f 61f
10:48 15 21 mph 1021.6mb 68f 61f
10:42 17 29 mph 1021.5mb 68f 61f
10:36 23 26 mph 1021.4mb 68f 61f
10:30 16 28 mph 1021.6mb 68f 61f
10:24 23 29 mph 1021.5mb 68f 61f
10:18 20 25 mph 1021.6mb 68f 61f
10:12 17 26 mph 1021.5mb 68f 61f
10:06 24 29 mph 1021.4mb 68f 61f
10:00 25 31 mph 1021.5mb 68f 60f
9:54 18 26 mph 1021.7mb 68f 61f
9:48 21 28 mph 1021.6mb 68f 61f
9:42 21 25 mph 1021.5mb 68f 61f
9:36 17 24 mph 1021.5mb 68f 61f
9:30 18 24 mph 1021.4mb 68f 61f
9:24 17 21 mph 1021.4mb 68f 61f
9:18 18 24 mph 1021.4mb 68f 61f
9:12 18 24 mph 1021.4mb 68f 61f
9:06 20 23 mph 1021.3mb 68f 61f
9:00 17 24 mph 1021.3mb 68f 61f
8:54 17 23 mph 1021.1mb 68f 60f
8:48 15 21 mph 1021mb 68f 60f
8:42 15 21 mph 1021mb 68f 60f
8:36 16 20 mph 1020.9mb 68f 60f
8:30 14 23 mph 1020.9mb 68f 60f
8:24 15 20 mph 1020.7mb 68f 60f
8:18 14 20 mph 1020.6mb 68f 60f
8:12 15 22 mph 1020.5mb 68f 60f
8:06 15 22 mph 1020.4mb 68f 60f
8:00 21 24 mph 1020.2mb 68f 60f
7:54 21 26 mph 1020.2mb 68f 60f
7:48 17 21 mph 1020.1mb 68f 60f
7:42 16 22 mph 1020mb 68f 60f
7:36 17 20 mph 1020mb 68f 60f
7:30 14 17 mph 1020mb 68f 60f
7:24 14 16 mph 1020mb 68f 60f
7:18 14 17 mph 1019.8mb 68f 60f
7:12 14 16 mph 1019.6mb 68f 61f
7:06 11 18 mph 1019.6mb 69f 61f
7:00 11 15 mph 1019.6mb 69f 61f
6:54 14 16 mph 1019.6mb 69f 61f
6:48 11 14 mph 1019.5mb 69f 61f
6:42 11 16 mph 1019.4mb 69f 61f
6:36 14 17 mph 1019.3mb 69f 61f
6:30 13 15 mph 1019.2mb 69f 61f
6:24 9 11 mph 1019.1mb 69f 61f
6:18 10 13 mph 1019mb 69f 61f
6:12 11 16 mph 1018.9mb 69f 61f
6:06 11 15 mph 1018.8mb 69f 61f
6:00 11 15 mph 1018.8mb 69f 61f
5:54 14 15 mph 1018.8mb 69f 61f
5:48 10 13 mph 1018.8mb 69f 61f
5:42 11 16 mph 1018.8mb 69f 61f
5:36 13 17 mph 1018.7mb 69f 61f
5:30 13 15 mph 1018.6mb 69f 61f
5:24 13 16 mph 1018.5mb 69f 61f
5:18 13 15 mph 1018.4mb 69f 61f
5:12 11 15 mph 1018.3mb 69f 61f
5:06 10 16 mph 1018.2mb 69f 61f
5:00 11 15 mph 1018.2mb 69f 61f
4:54 11 14 mph 1018.2mb 69f 61f
4:48 13 17 mph 1018.1mb 69f 61f
4:42 13 15 mph 1018mb 69f 60f
4:36 14 17 mph 1018mb 69f 60f
4:30 10 16 mph 1018mb 69f 61f
4:24 10 13 mph 1017.8mb 69f 61f
4:18 13 15 mph 1017.7mb 69f 60f
4:12 9 15 mph 1017.5mb 69f 60f
4:06 11 14 mph 1017.4mb 69f 60f
4:00 11 14 mph 1017.4mb 69f 60f
3:54 11 14 mph 1017.5mb 69f 60f
3:48 11 14 mph 1017.5mb 69f 60f
3:42 11 15 mph 1017.2mb 69f 60f
3:36 10 14 mph 1017.2mb 69f 60f
3:30 10 14 mph 1017.2mb 69f 60f
3:24 10 15 mph 1017.2mb 69f 60f
3:18 10 14 mph 1017.2mb 69f 61f
3:12 11 14 mph 1016.9mb 69f 61f
3:06 6 7 mph 1017.2mb 69f 61f
3:00 5 7 mph 1017.2mb 69f 60f
2:54 6 8 mph 1017mb 69f 60f
2:48 6 7 mph 1016.9mb 69f 60f
2:42 5 6 mph 1017mb 69f 60f
2:36 6 7 mph 1017mb 69f 60f
2:30 6 7 mph 1016.9mb 69f 60f
2:24 7 9 mph 1016.8mb 69f 60f
2:18 9
mph
1016.6mb 69f 61f
2:12 8 9 mph 1016.7mb 69f 61f
2:06 7 8 mph 1016.7mb 69f 61f
2:00 6 8 mph 1016.7mb 69f 61f
1:54 7 9 mph 1016.7mb 69f 61f
1:48 7 8 mph 1016.6mb 69f -
1:42 6 7 mph 1016.7mb 69f -
1:36 5 7 mph 1016.5mb 69f -
1:30 5 8 mph 1016.7mb 69f 62f
1:24 7 8 mph 1016.5mb 69f 62f
1:18 7 8 mph 1016.4mb 69f 62f
1:12 7 8 mph 1016.4mb 69f 62f
1:06 7 8 mph 1016.3mb 69f 62f
1:00 7 9 mph 1016.3mb 69f 62f
12:54 7 9 mph 1016.2mb 69f 62f
12:48 8 9 mph 1016.1mb 69f 62f
12:42 8 10 mph 1016.1mb 69f 62f
12:36 8 10 mph 1016.1mb 69f 62f
12:30 10 11 mph 1015.9mb 69f 62f
12:24 9
mph
1015.9mb 69f 63f
12:18 6 8 mph 1015.9mb 69f 63f
12:12 5
mph
1015.8mb 69f 64f
12:06 3
mph
1015.7mb 69f 64f
12:00 3 6 mph 1015.7mb 69f 64f
Di 09/27 11:54 5 6 mph 1015.5mb 69f 64f
11:48 5
mph
1015.5mb 69f 64f
11:42 3 6 mph 1015.5mb 69f 65f
11:36 3
mph
1015.5mb 69f 65f
11:30 1 3 mph 1015.6mb 69f 65f
11:24 1 2 mph 1015.6mb 69f 65f
11:18  -  2 mph 1015.4mb 69f 65f
11:12 2
mph
1015.4mb 69f 65f
11:06 2 3 mph 1015.4mb 69f 65f
11:00 3
mph
1015.3mb 69f 65f
10:54 2
mph
1015.3mb 69f 65f
10:48 2
mph
1015.4mb 69f 65f
10:42 1 2 mph 1015.4mb 69f 65f
10:36 2 3 mph 1015.3mb 69f 65f
10:30 2
mph
1015.2mb 69f 65f
10:24 1 2 mph 1015.1mb 69f 65f
10:18  -  1 mph 1014.9mb 69f 65f
10:12  -  2 mph 1014.8mb 69f 65f
10:06 2
mph
1014.9mb 69f 65f
10:00 2
mph
1014.9mb 69f 65f
9:54 2 3 mph 1014.8mb 69f 65f
9:48 2 3 mph 1014.7mb 69f 65f
9:42 3
mph
1014.7mb 69f 65f
9:36 2 3 mph 1014.5mb 69f 65f
9:30 2 3 mph 1014.4mb 69f 65f
9:24 1 2 mph 1014.4mb 69f 65f
9:18 1 2 mph - 69f 65f
9:12 2 3 mph - 69f 65f
9:06 3
mph
- 69f 65f
9:00 3
mph
1014.3mb 69f 65f
8:54 3 6 mph 1014.3mb 69f 65f
8:48 6 7 mph 1014.3mb 69f 65f
8:42 6
mph
1014.2mb 69f 66f
8:36 6
mph
1014.1mb 69f 66f
8:30 5 6 mph 1014mb 69f 66f
8:24 5 7 mph 1013.9mb 69f 66f
8:18 6 7 mph 1013.9mb 69f 66f
8:12 7 9 mph 1013.9mb 69f 66f
8:06 8 9 mph 1013.8mb 69f 67f
8:00 8 9 mph 1013.7mb 69f 66f
7:54 9 10 mph 1013.6mb 69f 66f
7:48 9 10 mph 1013.6mb 69f -
7:42 9 11 mph 1013.6mb 69f -
7:36 10 11 mph 1013.4mb 69f -
7:30 10 13 mph 1013.3mb 69f 67f
7:24 11 13 mph 1013.2mb 69f 67f
7:18 11 13 mph 1013.2mb 69f 67f
7:12 13
mph
1013.1mb 69f 67f
7:06 13 14 mph 1013mb 69f 67f
7:00 11 13 mph 1013.1mb 69f 67f
6:54 13 14 mph 1013.1mb 69f 67f
6:48 13 15 mph 1013.1mb 69f 67f
6:42 14 15 mph 1013mb 69f 67f
6:36 14
mph
1013mb 69f 67f
6:30 13 14 mph 1012.9mb 69f 67f
6:24 10
mph
1012.6mb 69f 67f
6:18 10 11 mph 1012.6mb 69f 67f
6:12 11 13 mph 1012.5mb 69f 67f
6:06 10 13 mph 1012.3mb 69f 67f
6:00 13 14 mph 1012.3mb 69f 67f
5:54 13 15 mph 1012.4mb 69f 67f
5:48 13 14 mph - 69f 68f
5:42 13 14 mph - 69f 68f
5:36 10 11 mph - 69f 68f
5:30 11 13 mph 1012.3mb 69f 68f
5:24 11 13 mph 1012.2mb 69f 68f
5:18 10 11 mph 1012.2mb 69f 68f
5:12 8
mph
1012.2mb 69f 68f
5:06 7
mph
1012.1mb 69f 69f
5:00 6 7 mph 1012mb 69f 68f
4:54 6 7 mph 1012.1mb 69f 68f
4:48 6 7 mph 1012mb 69f 68f
4:42 7 8 mph 1012mb 69f 68f
4:36 7 8 mph 1012mb 69f 68f
4:30 7
mph
1011.9mb 69f 68f
4:24 6
mph
1011.9mb 69f 68f
4:18 6
mph
1011.8mb 69f 68f
4:12 6 7 mph 1011.9mb 69f 68f
4:06 6 7 mph 1011.9mb 69f 68f
4:00 7
mph
1012mb 69f 68f
3:54 7
mph
1012mb 69f 68f
3:48 7
mph
1012mb 69f 68f
3:42 6 7 mph 1012mb 69f 68f
3:36 6
mph
1012mb 69f 68f
3:30 5
mph
1012mb 69f 68f
3:24 5
mph
1011.9mb 69f 68f
3:18 6
mph
1012mb 69f 68f
3:12 5 6 mph 1012mb 69f 68f
3:06 6
mph
1012mb 69f 68f
3:00 5
mph
1011.9mb 69f 68f
2:54 2 3 mph 1011.9mb 69f 68f
2:48 3
mph
1011.8mb 69f 68f
2:42 3 6 mph 1011.8mb 69f 68f
2:36 6
mph
1011.9mb 69f 68f
2:30 6 7 mph 1011.9mb 69f 67f
2:24 6 7 mph 1011.9mb 69f 67f
2:18 6 7 mph 1012mb 69f 67f
2:12 6
mph
1012mb 69f 67f
2:06 6 7 mph 1012mb 69f 67f
2:00 7 8 mph 1012mb 69f 67f
1:54 7
mph
1012.1mb 69f 67f
1:48 7 8 mph 1012.1mb 69f 67f
1:42 6
mph
1012.1mb 69f 68f
1:36 1
mph
1012.1mb 69f 69f
1:30 1
mph
1012.1mb 69f 71f
1:24  -  mph 1012.1mb 69f 71f
1:18  -  1 mph 1012.2mb 69f 71f
1:12  -  mph 1012.2mb 69f 70f
1:06  -  mph 1012.3mb 69f 69f
1:00  -  1 mph 1012.3mb 69f 68f
12:54  -  2 mph 1012.3mb 69f 68f
12:48 2 3 mph 1012.3mb 69f 67f
12:42 2 3 mph 1012.2mb 69f 68f
12:36 3
mph
1012.2mb 69f 68f
12:30 3
mph
1012.2mb 69f 67f
12:24 2 5 mph 1012.3mb 69f 67f
12:18 3 5 mph 1012.3mb 69f 67f
12:12 3 6 mph 1012.3mb 69f 67f
12:06 6 7 mph 1012.3mb 69f 67f
12:00 6 8 mph 1012.3mb 69f 67f
11:54 8 9 mph 1012.3mb 69f 67f
11:48 7 9 mph 1012.3mb 69f 67f
11:42 8 10 mph 1012.4mb 69f 67f
11:36 8 9 mph 1012.4mb 69f 67f
11:30 9 11 mph 1012.4mb 69f 67f
11:24 10 11 mph 1012.4mb 69f 66f
11:18 8 10 mph 1012.4mb 69f 66f
11:12 8
mph
1012.3mb 69f 66f
11:06 5 6 mph 1012.2mb 69f 66f
11:00 5 6 mph 1012.3mb 69f 66f
10:54 5
mph
1012.3mb 69f 66f
10:48 3 6 mph 1012.3mb 69f 66f
10:42 2 5 mph 1012.4mb 69f 66f
10:36 2 3 mph 1012.4mb 69f 66f
10:30 2 3 mph 1012.3mb 69f 66f
10:24 2 3 mph 1012.3mb 69f 66f
10:18 3 5 mph 1012.2mb 69f 66f
10:12 2 3 mph 1012.2mb 69f 66f
10:06 3 5 mph 1012.2mb 69f 65f
10:00 5 6 mph 1012.4mb 69f 65f
9:54 5 7 mph 1012.4mb 69f 65f
9:48 6 7 mph 1012.4mb 69f 65f
9:42 6 7 mph 1012.3mb 69f 65f
9:36 5 6 mph 1012.1mb 69f 65f
9:30 5 7 mph 1012.1mb 69f 65f
9:24 6 7 mph 1012mb 69f 65f
9:18 7 8 mph 1012.1mb 69f 65f
9:12 7 8 mph 1012.1mb 69f 65f
9:06 8 9 mph 1012mb 69f 65f
9:00 8
mph
1011.8mb 69f 65f
8:54 7 9 mph 1011.7mb 69f 65f
8:48 7 9 mph 1011.6mb 69f 65f
8:42 8 9 mph 1011.7mb 69f 65f
8:36 8 9 mph 1011.7mb 69f 65f
8:30 9 14 mph 1011.8mb 69f 65f
8:24 13 14 mph 1011.5mb 69f 66f
8:18 9 11 mph 1011.4mb 69f 66f
8:12 9 11 mph 1011.3mb 68f 67f
8:06 11 13 mph 1011.3mb 68f 67f
8:00 11 16 mph 1011.2mb 68f 67f
7:54 13 16 mph 1011.2mb 68f 67f
7:48 15 20 mph 1011.2mb 68f 67f
7:42 16 21 mph 1011.2mb 68f 67f
7:36 15 18 mph 1011.3mb 68f 66f
7:30 11 14 mph 1011.5mb 68f 66f
7:24 13 14 mph 1011.5mb 68f 66f
7:18 11 15 mph 1011.6mb 68f 66f
7:12 15 18 mph 1011.6mb 68f 66f
7:06 17 20 mph 1011.7mb 68f 66f
7:00 17 18 mph 1011.7mb 68f 66f
6:54 16 20 mph 1011.8mb 68f 66f
6:48 17 20 mph 1011.8mb 68f 66f
6:42 15 18 mph 1011.9mb 69f 66f
6:36 16 18 mph 1012mb 69f 65f
6:30 15 18 mph 1012.1mb 69f 65f
6:24 17 20 mph 1012.2mb 69f 65f
6:18 17 18 mph 1012.3mb 69f 65f
6:12 15 18 mph 1012.4mb 69f 65f
6:06 14 15 mph 1012.4mb 69f 65f
6:00 13 16 mph 1012.4mb 69f 65f
5:54 14 15 mph 1012.4mb 69f 66f
5:48 14 17 mph 1012.4mb 69f 66f
5:42 15 20 mph 1012.4mb 69f 66f
5:36 17 23 mph 1012.4mb 69f 66f
5:30 23 25 mph 1012.3mb 69f 67f
5:24 17 21 mph 1012.3mb 69f 67f
5:18 18 22 mph 1012.2mb 69f 67f
5:12 17 21 mph 1012.3mb 69f 68f
5:06 20 25 mph 1012.3mb 69f 68f
5:00 21 25 mph 1012.4mb 69f 68f
4:54 21 24 mph 1012.5mb 69f 68f
4:48 21 24 mph 1012.5mb 69f 68f
4:42 20 22 mph 1012.6mb 69f 68f
4:36 20 24 mph 1012.6mb 69f 67f
4:30 22 24 mph 1012.6mb 69f 67f
4:24 21 23 mph 1012.7mb 69f 67f
4:18 20 24 mph 1012.7mb 69f 67f
4:12 20 22 mph 1012.8mb 69f 67f
4:06 18 25 mph 1012.9mb 69f 67f
4:00 17 22 mph 1012.9mb 69f 67f
3:54 20 22 mph 1013.1mb 68f 67f
3:48 18 22 mph 1013.2mb 68f 67f
3:42 18 22 mph 1013.4mb 68f 67f
3:36 18 22 mph 1013.5mb 68f 67f
3:30 18 22 mph 1013.5mb 68f 67f
3:24 17 18 mph 1013.6mb 68f 67f
3:18 17 20 mph 1013.8mb 68f 67f
3:12 15 21 mph 1013.8mb 68f 67f
3:06 15 17 mph 1014mb 68f 67f
3:00 14 15 mph 1014.1mb 68f 66f
2:54 15 18 mph 1014.3mb 68f 66f
2:48 15 18 mph 1014.4mb 68f -
2:42 16 20 mph 1014.4mb 68f -
2:36 17 20 mph 1014.5mb 68f -
2:30 17 22 mph 1014.6mb 68f 67f
2:24 17 22 mph 1014.6mb 68f 67f
2:18 21 23 mph 1014.7mb 68f 67f
2:12 20 23 mph 1014.7mb 68f 67f
2:06 21 23 mph 1014.7mb 68f 67f
2:00 21 23 mph 1014.8mb 68f 67f
1:54 23 24 mph 1014.7mb 68f 66f
1:48 22 25 mph 1014.8mb 68f -
1:42 23 28 mph 1014.8mb 68f -
1:36 24 28 mph 1014.8mb 68f -
1:30 25 28 mph 1014.9mb 68f 66f
1:24 24 26 mph 1014.9mb 68f 66f
1:18 21 24 mph 1015mb 69f 66f
1:12 22 25 mph 1015mb 69f 66f
1:06 21 23 mph 1015.1mb 69f 66f
1:00 20 23 mph 1015.2mb 69f 66f
12:54 22 25 mph 1015.4mb 69f 66f
12:48 21 23 mph 1015.5mb 69f 66f
12:42 22 24 mph 1015.6mb 68f 66f
12:36 20 25 mph 1015.7mb 68f 66f
12:30 23 25 mph 1015.7mb 68f 66f
12:24 22 26 mph 1015.8mb 68f 66f
12:18 23 25 mph 1015.9mb 68f 66f
12:12 23 26 mph 1016mb 68f 66f
12:06 23 26 mph 1016mb 68f 66f
12:00 24 25 mph 1016.2mb 68f 66f
Mo 09/26 11:54 22 28 mph 1016.3mb 68f 66f
11:48 24 28 mph 1016.4mb 68f 66f
11:42 21 24 mph 1016.6mb 68f 66f
11:36 22 25 mph 1016.7mb 68f 65f
11:30 21 24 mph 1016.7mb 68f 65f
11:24 21 23 mph 1016.8mb 68f 65f
11:18 20 23 mph 1016.9mb 69f 65f
11:12 17 20 mph 1017mb 69f 64f
11:06 16 20 mph 1017.2mb 69f 63f
11:00 16 20 mph 1017.3mb 69f 63f
10:54 15 18 mph 1017.4mb 69f 63f
10:48 15 17 mph 1017.4mb 69f 63f
10:42 15 16 mph 1017.6mb 69f 62f
10:36 14 17 mph 1017.6mb 69f 62f
10:30 15 17 mph 1017.7mb 69f 62f
10:24 14 16 mph 1017.8mb 69f 62f
10:18 14 17 mph 1017.7mb 69f 62f
10:12 15 18 mph 1017.8mb 69f 62f
10:06 16 18 mph 1017.8mb 69f 62f
10:00 16 18 mph 1017.9mb 69f 63f
9:54 15 20 mph 1018mb 69f 63f
9:48 16 21 mph 1018mb 69f 63f
9:42 16 20 mph 1018mb 69f 63f
9:36 17 24 mph 1018.1mb 69f 64f
9:30 18 21 mph 1018mb 69f 64f
9:24 17 20 mph 1018mb 69f 64f
9:18  -  mph 1018mb 69f 63f
9:12  -  mph 1018mb 69f 63f
9:06  -  mph 1018mb 69f 63f
9:00 17 20 mph 1018mb 69f 63f
8:54 16 20 mph 1018.1mb 69f 63f
8:48 16 18 mph 1018.2mb 69f 63f
8:42 16 20 mph 1018.2mb 69f 63f
8:36 16 20 mph 1018.3mb 69f 63f
8:30 16 22 mph 1018.4mb 69f 63f
8:24 18 25 mph 1018.4mb 69f 63f
8:18  -  mph 1018.3mb 69f 63f
8:12  -  mph 1018.2mb 69f 64f
8:06  -  mph 1018.2mb 69f 63f
8:00 22 25 mph 1018.3mb 69f 63f
7:54 20 22 mph 1018.2mb 69f 63f
7:48 20 22 mph 1018.2mb 69f 63f
7:42 16 20 mph 1018.2mb 69f 63f
7:36 17 20 mph 1018.2mb 69f 63f
7:30 18 21 mph 1018.3mb 69f 63f
7:24 17 22 mph 1018.4mb 69f 63f
7:18 20 22 mph 1018.4mb 69f 63f
7:12 16 21 mph 1018.5mb 69f 63f
7:06 18 23 mph 1018.5mb 69f 62f
7:00 17 21 mph 1018.6mb 69f 62f
6:54 18 21 mph 1018.7mb 69f 62f
6:48 17 21 mph 1018.8mb 69f -
6:42 18 21 mph 1018.8mb 69f -
6:36 17 18 mph 1018.9mb 69f -
6:30 16 18 mph - 69f 62f
6:24 16 20 mph - 69f 63f
6:18 16 22 mph 1019mb 69f 62f
6:12 20 22 mph 1018.9mb 69f 63f
6:06 21 22 mph 1018.9mb 69f 63f
6:00 16 20 mph 1018.9mb 69f 63f
5:54 15 20 mph 1018.9mb 69f 63f
5:48 18 22 mph 1019mb 69f 63f
5:42 18 21 mph 1019mb 69f 64f
5:36 21 22 mph 1019mb 69f 64f
5:30 21 22 mph 1019.1mb 69f 64f
5:24 17 22 mph 1019mb 69f 64f
5:18 17 20 mph 1019mb 69f 64f
5:12 16 20 mph 1019mb 69f 64f
5:06 17 21 mph 1019mb 69f 64f
5:00 16 21 mph 1019.1mb 69f 64f
4:54 18 21 mph 1019.2mb 69f 63f
4:48 17 22 mph 1019.3mb 69f 63f
4:42 21 25 mph 1019.3mb 69f 63f
4:36 22 24 mph 1019.4mb 69f 63f
4:30 21 24 mph 1019.5mb 69f 63f
4:24 21 25 mph 1019.5mb 69f 62f
4:18 21 24 mph 1019.6mb 69f 62f
4:12 21 24 mph 1019.6mb 69f 62f
4:06 21 23 mph 1019.7mb 69f 62f
4:00 20 22 mph 1019.7mb 69f 62f
3:54 21 26 mph 1019.8mb 69f 62f
3:48 21 23 mph 1019.9mb 69f 62f
3:42 17 20 mph 1020mb 69f 62f
3:36 16 21 mph 1020mb 69f 62f
3:30 16 18 mph 1020.1mb 69f 62f
3:24 16 18 mph 1020.2mb 69f 62f
3:18 15 17 mph 1020.3mb 69f 62f
3:12 14 16 mph 1020.3mb 69f 62f
3:06 14 16 mph 1020.3mb 69f 62f
3:00 14 17 mph 1020.3mb 69f 62f
2:54 14 17 mph 1020.4mb 69f 62f
2:48 15 17 mph 1020.4mb 69f 62f
2:42 14 16 mph 1020.4mb 69f 62f
2:36 14 16 mph 1020.5mb 69f 62f
2:30 9 14 mph 1020.5mb 69f 62f
2:24 11 14 mph 1020.5mb 69f 62f
2:18 10 13 mph 1020.6mb 69f 62f
2:12 9 11 mph 1020.6mb 69f 62f
2:06 9 10 mph 1020.7mb 69f 61f
2:00 8 10 mph 1020.7mb 69f 61f
1:54 8 10 mph 1020.8mb 69f 61f
1:48 8 9 mph 1020.9mb 69f 61f
1:42 8 10 mph 1021mb 69f 61f
1:36 7 9 mph 1021mb 69f 61f
1:30 6 9 mph 1021.1mb 69f 61f
1:24 7 8 mph 1021.2mb 69f 60f
1:18 7
mph
1021.3mb 69f 61f
1:12 6 7 mph 1021.4mb 69f 60f
1:06 6 7 mph 1021.5mb 69f 60f
1:00 7 8 mph 1021.6mb 69f 60f
12:54 6 8 mph 1021.6mb 69f 60f
12:48 7 8 mph 1021.7mb 69f 60f
12:42 6 7 mph 1021.8mb 69f 60f
12:36 7 8 mph 1021.8mb 69f 60f
12:30 6 7 mph 1021.9mb 69f 60f
12:24 6 7 mph 1022mb 69f 60f
12:18 7 8 mph 1021.9mb 69f 59f
12:12 7 8 mph 1021.9mb 69f 59f
12:06 7 8 mph 1022mb 69f 59f
12:00 5 6 mph 1022mb 69f 59f
11:54 6 7 mph 1022.2mb 69f 58f
11:48 5 6 mph 1022.2mb 69f 58f
11:42 3 6 mph 1022.3mb 69f 58f
11:36 3
mph
1022.4mb 69f 58f
11:30 3 5 mph 1022.5mb 69f 58f
11:24 3 6 mph 1022.6mb 69f 58f
11:18 3 5 mph 1022.7mb 69f 58f
11:12 2 3 mph 1022.8mb 69f 58f
11:06 3
mph
1022.9mb 69f 58f
11:00 3 5 mph 1023mb 69f 57f
10:54 2 3 mph 1023mb 69f 58f
10:48 1 2 mph 1023mb 69f 59f
10:42 2 3 mph 1023.1mb 69f 58f
10:36 1 2 mph 1023mb 69f 58f
10:30  -  2 mph 1023.1mb 69f 58f
10:24 2 3 mph 1023.1mb 69f 58f
10:18  -  1 mph 1023.1mb 69f 58f
10:12  -  2 mph 1023.1mb 69f 58f
10:06  -  1 mph 1023.2mb 69f 58f
10:00  -  mph 1023.3mb 69f 59f
9:54  -  1 mph 1023.3mb 69f 61f
9:48 1 2 mph 1023.4mb 69f 60f
9:42  -  2 mph 1023.4mb 69f 58f
9:36 2 3 mph 1023.3mb 69f 55f
9:30  -  3 mph 1023.3mb 69f 56f
9:24  -  3 mph 1023.3mb 69f 59f
9:18 2 5 mph 1023.3mb 69f 58f
9:12 3 6 mph 1023.3mb 69f 57f
9:06 3 6 mph 1023.3mb 69f 56f
9:00 3 5 mph 1023.2mb 68f 56f
8:54 3 6 mph 1023.3mb 68f 56f
8:48 2 5 mph 1023.4mb 68f 56f
8:42 3 6 mph 1023.4mb 68f 55f
8:36 6 8 mph 1023.3mb 68f 54f
8:30 7 8 mph 1023.3mb 68f 53f
8:24 6 7 mph 1023.3mb 68f 54f
8:18 6 8 mph 1023.3mb 68f 54f
8:12 7 8 mph 1023.2mb 68f 54f
8:06 6 7 mph 1023.2mb 68f 54f
8:00 7 8 mph 1023.1mb 68f 53f
7:54 7 9 mph 1023.2mb 68f 52f
7:48 7 8 mph 1023.2mb 68f 51f
7:42 7 9 mph 1023.2mb 68f 51f
7:36 8 9 mph 1023.2mb 68f 50f
7:30 7 9 mph 1023.3mb 68f 51f
7:24 7 9 mph 1023.2mb 68f 51f
7:18 8 9 mph 1023.1mb 68f 50f
7:12 7 9 mph 1023.2mb 68f 50f
7:06 7 9 mph 1023.1mb 68f 50f
7:00 7 9 mph 1023mb 68f 51f
6:54 7 8 mph 1023mb 68f 50f
6:48 7 8 mph 1022.9mb 68f 50f
6:42 6 8 mph 1022.9mb 68f 50f
6:36 8 9 mph 1022.8mb 68f 50f
6:30 7 8 mph 1022.7mb 68f 51f
6:24 7 9 mph 1022.6mb 68f 50f
6:18 7 9 mph 1022.5mb 68f 50f
6:12 7 8 mph 1022.4mb 68f 50f
6:06 6 8 mph 1022.4mb 68f 51f
6:00 7 8 mph 1022.4mb 68f 51f
5:54 7 8 mph 1022.3mb 68f 52f
5:48 7 8 mph 1022.3mb 68f 51f
5:42 7 8 mph 1022.2mb 68f 51f
5:36 7 8 mph 1022.1mb 68f 51f
5:30 6 8 mph 1022mb 68f 51f
5:24 6 8 mph 1022.1mb 68f 51f
5:18 7 8 mph 1022.1mb 68f 51f
5:12 6 8 mph 1022.1mb 68f 52f
5:06 7 9 mph 1021.9mb 68f 51f
5:00 8 11 mph 1021.8mb 68f 51f
4:54 9 11 mph 1021.8mb 68f 52f
4:48 9 10 mph 1021.9mb 68f 51f
4:42 8 10 mph 1021.9mb 68f 51f
4:36 9 11 mph 1021.9mb 68f 52f
4:30 11 13 mph 1021.9mb 68f 51f
4:24 9 11 mph 1021.9mb 68f 51f
4:18 10 11 mph 1021.9mb 68f 50f
4:12 9 10 mph 1022mb 68f 51f
4:06 10 13 mph 1021.9mb 68f 51f
4:00 13 14 mph 1021.9mb 68f 51f
3:54 10 13 mph 1022mb 68f 52f
3:48 11 14 mph 1022.1mb 68f 52f
3:42 10 14 mph 1022.1mb 68f 53f
3:36 11 14 mph 1022.1mb 68f 53f
3:30 10 13 mph 1022.1mb 68f 53f
3:24 9 13 mph 1022.2mb 68f 54f
3:18 10 13 mph 1022.3mb 69f 54f
3:12 10 13 mph 1022.3mb 69f 54f
3:06 10 13 mph 1022.2mb 69f 54f
3:00 9 13 mph 1022.1mb 69f 53f
2:54 9 11 mph 1022.2mb 69f 53f
2:48 9 10 mph 1022.2mb - -
2:42 10 11 mph 1022.2mb - -
2:36 11
mph
1022.2mb - -
2:30 9 10 mph 1022.3mb 69f 53f
2:24 8 10 mph 1022.5mb 69f 53f
2:18 9 11 mph 1022.5mb 69f 53f
2:12 10 11 mph 1022.5mb 69f 53f
2:06 8 10 mph 1022.5mb 69f 54f
2:00 6 8 mph 1022.6mb 69f 54f
1:54 6 8 mph 1022.6mb 69f 54f
1:48 8 10 mph 1022.5mb 69f -
1:42 9 10 mph 1022.4mb 69f -
1:36 8 10 mph 1022.5mb 69f -
1:30 8 11 mph 1022.6mb 69f 55f
1:24 9 13 mph 1022.5mb 69f 55f
1:18 11 14 mph 1022.3mb 69f 55f
1:12 9 11 mph 1022.4mb 69f 55f
1:06 8 9 mph 1022.5mb 69f 54f
1:00 8 10 mph 1022.4mb 69f 55f
12:54 9 11 mph 1022.2mb 69f 55f
12:48 10 13 mph 1022.2mb 69f 55f
12:42 10 13 mph 1022.3mb 69f 55f
12:36 10 14 mph 1022.3mb 69f 55f
12:30 11 14 mph 1022.3mb 69f 55f
12:24 11 14 mph 1022.2mb 69f 55f
12:18 10 13 mph 1022.2mb 69f 56f
12:12 11 14 mph 1022.2mb 69f 56f
12:06 10 13 mph 1022.1mb 69f 56f
12:00 9 11 mph 1022.2mb 69f 56f
So 09/25 11:54 11 13 mph 1022.2mb 69f 56f
11:48 10 13 mph 1022mb 69f 56f
11:42 11 14 mph 1022mb 69f 56f
11:36 11 14 mph 1022.1mb 69f 56f
11:30 11 13 mph 1022.2mb 69f 57f
11:24 11 14 mph 1022.1mb 69f 57f
11:18 13 15 mph 1021.9mb 69f 57f
11:12 13 14 mph 1021.9mb 69f 57f
11:06 11 14 mph 1021.9mb 69f 58f
11:00 11 15 mph 1021.8mb 69f 58f
10:54 11 14 mph 1021.8mb 70f 58f
10:48 11 14 mph 1021.7mb 70f 58f
10:42 11 13 mph 1021.6mb 70f 58f
10:36 10 14 mph 1021.7mb 70f 58f
10:30 14 15 mph 1021.7mb 70f 59f
10:24 13 14 mph 1021.6mb 70f 59f
10:18 10 13 mph - 70f 59f
10:12 8 11 mph - 70f 59f
10:06 11 16 mph - 70f 59f
10:00 13 15 mph 1021.4mb 70f 59f
9:54 11 13 mph 1021.4mb 70f 59f
9:48 9 11 mph - 70f 59f
9:42 10 14 mph - 70f 60f
9:36 11 14 mph - 70f 60f
9:30 10 14 mph 1021.4mb 70f 61f
9:24 13 14 mph 1021.2mb 70f 61f
9:18 11 15 mph 1021.1mb 70f 61f
9:12 11 15 mph 1021.1mb 70f 61f
9:06 10 16 mph 1021.1mb 70f 61f
9:00 11 16 mph 1021.1mb 70f 61f
8:54 11 14 mph 1021mb 70f 61f
8:48 10 13 mph 1020.9mb 70f 61f
8:42 11 13 mph 1020.8mb 70f 61f
8:36 10 11 mph 1020.8mb 70f 61f
8:30 10 13 mph 1020.7mb 70f 61f
8:24 10 13 mph 1020.6mb 70f 61f
8:18 10 13 mph 1020.6mb 70f 61f
8:12 9 11 mph 1020.6mb 70f 61f
8:06 9 11 mph 1020.6mb 70f 62f
8:00 10 11 mph 1020.4mb 70f 62f
7:54 11 13 mph 1020.3mb 70f 62f
7:48 10 14 mph 1020.2mb 70f -
7:42 13 14 mph 1020mb 70f -
7:36 11 13 mph 1020mb 70f -
7:30 11 14 mph - 70f 63f
7:24 11 14 mph - 70f 62f
7:18 11 15 mph 1019.8mb 70f 63f
7:12 13 15 mph 1019.8mb 70f 63f
7:06 14 17 mph 1019.6mb 70f 63f
7:00 15 18 mph 1019.4mb 70f 63f
6:54 14 16 mph 1019.3mb 70f 63f
6:48 15 16 mph 1019.2mb 70f -
6:42 14 18 mph 1019.2mb 70f -
6:36 17 21 mph 1019mb 70f -
6:30 13 16 mph 1019mb 70f 64f
6:24 14 16 mph 1018.9mb 70f 64f
6:18 16 20 mph 1018.8mb 70f 64f
6:12 14 17 mph 1018.7mb 70f 64f
6:06 16 20 mph 1018.6mb 70f 64f
6:00 16 20 mph 1018.4mb 70f 65f
5:54 16 17 mph 1018.3mb 70f 65f
5:48 14 22 mph 1018.4mb 70f 65f
5:42 20 22 mph 1018.2mb 70f 65f
5:36 18 23 mph 1018.3mb 70f 64f
5:30 17 22 mph 1018.4mb 70f 65f
5:24 18 22 mph 1018.3mb 70f 65f
5:18 17 21 mph 1018.2mb 70f 66f
5:12 16 21 mph 1018.2mb 70f 66f
5:06 14 17 mph 1018.1mb 70f 65f
5:00 17 22 mph 1018.1mb 70f 65f
4:54 17 23 mph 1018mb 70f 66f
4:48 15 21 mph 1018mb 70f 67f
4:42 17 24 mph 1018mb 70f 66f
4:36 13 20 mph 1018mb 70f 65f
4:30 15 24 mph 1018mb 70f 66f
4:24 15 17 mph 1018mb 70f 65f
4:18 15 18 mph 1018mb 70f 65f
4:12 17 20 mph 1017.9mb 70f 65f
4:06 17 22 mph 1017.9mb 70f 64f
4:00 18 22 mph 1017.9mb 70f 65f
3:54 11 22 mph 1018mb 70f 66f
3:48 17 25 mph 1018mb 70f 65f
3:42 22 25 mph 1018mb 70f 65f
3:36 15 26 mph 1018.2mb 70f 65f
3:30 21 23 mph 1018.1mb 70f 64f
3:24 22 28 mph 1018.2mb 70f 65f
3:18 20 22 mph 1018.2mb 70f 65f
3:12 21 28 mph 1018.2mb 70f 65f
3:06 18 24 mph 1018.2mb 70f 64f
3:00 23 26 mph 1018.1mb 70f 64f
2:54 18 21 mph 1018.2mb 70f 64f
2:48 23 28 mph 1018.2mb 70f 63f
2:42 18 25 mph 1018.3mb 70f 64f
2:36 17 25 mph 1018.3mb 70f 63f
2:30 18 23 mph 1018.4mb 70f 63f
2:24 11 23 mph 1018.4mb 70f 63f
2:18 18 24 mph 1018.4mb 70f 62f
2:12 16 20 mph 1018.5mb 70f 63f
2:06 17 21 mph 1018.6mb 70f 64f
2:00 17 20 mph 1018.7mb 70f 64f
1:54 16 21 mph 1018.7mb 70f 62f
1:48 15 23 mph 1018.7mb 70f 63f
1:42 20 24 mph 1018.8mb 70f 62f